Monette, Arkansas
Current Conditions -  °F | °C
As of 2:53 AM on Saturday 29 Nov 2014 (Local Time) from KJBR Reporting Station
Broken Clouds Broken Clouds  
Wind Chill: 42°   Ceiling: 2200
Heat Index: 48°   Visibility: 10mi
Dew Point: 39°   Wind: 14mph
Humidity: 71%   Direction: 200°SSW
Pressure: 30"   Gusts: NA
Location:  35.89°N, 90.34°W
Report Text: KJBR 290853Z AUTO 20012KT 10SM BKN022 09/04 A3000 RMK AO2 SLP157 T00890039 56008
Loading
Personal Weather Stations






























Interactive Weather Map New forecast layout! Learn more

10-Day Weather Forecast

Advertisements
Track Severe Weather on mobile